createdAt,value
2019-01-25T00:01:59.976Z,98475.39
2019-01-25T00:04:28.779Z,98470.25
2019-01-25T00:06:57.595Z,98479.86
2019-01-25T00:09:26.462Z,98480.70
2019-01-25T00:11:55.313Z,98480.36
2019-01-25T00:14:24.094Z,98477.28
2019-01-25T00:16:52.893Z,98483.22
2019-01-25T00:19:21.670Z,98487.39
2019-01-25T00:21:50.455Z,98494.05
2019-01-25T00:24:19.239Z,98491.14
2019-01-25T00:26:48.107Z,98490.34
2019-01-25T00:29:17.702Z,98492.72
2019-01-25T00:31:46.647Z,98502.09
2019-01-25T00:34:15.432Z,98495.83
2019-01-25T00:36:44.290Z,98490.16
2019-01-25T00:39:13.134Z,98496.14
2019-01-25T00:41:41.930Z,98497.88
2019-01-25T00:44:10.880Z,98500.03
2019-01-25T00:46:39.744Z,98505.67
2019-01-25T00:49:08.643Z,98501.02
2019-01-25T00:51:37.500Z,98500.33
2019-01-25T00:54:06.576Z,98499.16
2019-01-25T00:56:35.469Z,98494.88
2019-01-25T00:59:04.739Z,98494.88
2019-01-25T01:01:33.780Z,98497.61
2019-01-25T01:04:02.564Z,98493.41
2019-01-25T01:06:31.444Z,98495.67
2019-01-25T01:09:00.335Z,98497.70
2019-01-25T01:11:29.127Z,98503.23
2019-01-25T01:13:57.989Z,98504.38
2019-01-25T01:16:26.866Z,98504.86
2019-01-25T01:18:55.664Z,98505.25
2019-01-25T01:21:24.536Z,98504.55
2019-01-25T01:23:53.315Z,98503.39
2019-01-25T01:26:22.268Z,98512.58
2019-01-25T01:28:51.057Z,98508.83
2019-01-25T01:31:20.233Z,98510.52
2019-01-25T01:33:49.103Z,98515.19
2019-01-25T01:36:17.891Z,98510.27
2019-01-25T01:38:46.749Z,98511.08
2019-01-25T01:41:15.621Z,98523.14
2019-01-25T01:43:44.483Z,98520.83
2019-01-25T01:46:13.399Z,98528.80
2019-01-25T01:48:42.177Z,98526.20
2019-01-25T01:51:11.107Z,98521.90
2019-01-25T01:53:39.971Z,98533.62
2019-01-25T01:56:08.915Z,98526.77
2019-01-25T01:58:37.810Z,98528.13
2019-01-25T02:01:06.851Z,98534.75
2019-01-25T02:03:35.778Z,98518.20
2019-01-25T02:06:04.993Z,98521.77
2019-01-25T02:08:33.808Z,98525.33
2019-01-25T02:11:02.599Z,98538.72
2019-01-25T02:13:31.554Z,98527.83
2019-01-25T02:16:00.490Z,98530.83
2019-01-25T02:18:29.290Z,98519.55
2019-01-25T02:20:58.533Z,98519.55
2019-01-25T02:23:27.393Z,98528.58
2019-01-25T02:25:56.256Z,98526.73
2019-01-25T02:28:25.190Z,98528.33
2019-01-25T02:30:54.053Z,98529.06
2019-01-25T02:33:22.927Z,98523.48
2019-01-25T02:35:52.544Z,98531.11
2019-01-25T02:38:21.388Z,98538.72
2019-01-25T02:40:50.182Z,98532.52
2019-01-25T02:43:19.072Z,98534.17
2019-01-25T02:45:48.000Z,98538.75
2019-01-25T02:48:16.875Z,98544.02
2019-01-25T02:50:45.726Z,98544.02
2019-01-25T02:53:14.529Z,98539.61
2019-01-25T02:55:43.306Z,98535.77
2019-01-25T02:58:12.462Z,98535.77
2019-01-25T03:00:41.256Z,98533.45
2019-01-25T03:03:10.126Z,98534.33
2019-01-25T03:05:38.998Z,98525.50
2019-01-25T03:08:07.869Z,98532.09
2019-01-25T03:10:36.808Z,98540.47
2019-01-25T03:13:05.810Z,98536.70
2019-01-25T03:15:34.685Z,98537.02
2019-01-25T03:18:03.543Z,98536.66
2019-01-25T03:20:32.321Z,98541.16
2019-01-25T03:23:01.101Z,98541.09
2019-01-25T03:25:30.031Z,98546.72
2019-01-25T03:27:58.822Z,98547.20
2019-01-25T03:30:27.879Z,98539.88
2019-01-25T03:32:56.808Z,98544.90
2019-01-25T03:35:26.730Z,98549.72
2019-01-25T03:37:55.665Z,98544.38
2019-01-25T03:40:28.610Z,98547.69
2019-01-25T03:42:57.681Z,98555.70
2019-01-25T03:45:27.559Z,98552.79
2019-01-25T03:47:56.496Z,98554.64
2019-01-25T03:50:27.617Z,98555.35
2019-01-25T03:52:56.652Z,98542.01
2019-01-25T03:55:25.790Z,98556.55
2019-01-25T03:57:55.524Z,98549.92
2019-01-25T04:00:26.405Z,98560.42
2019-01-25T04:02:55.759Z,98558.07
2019-01-25T04:05:25.678Z,98561.25
2019-01-25T04:07:54.722Z,98567.70
2019-01-25T04:10:25.694Z,98562.28
2019-01-25T04:12:54.652Z,98568.00
2019-01-25T04:15:34.449Z,98570.63
2019-01-25T04:18:03.409Z,98570.61
2019-01-25T04:20:32.276Z,98570.95
2019-01-25T04:23:01.147Z,98556.94
2019-01-25T04:25:30.031Z,98556.94
2019-01-25T04:27:58.906Z,98570.56
2019-01-25T04:30:29.593Z,98566.77
2019-01-25T04:32:58.472Z,98568.05
2019-01-25T04:35:27.517Z,98568.52
2019-01-25T04:37:56.991Z,98569.52
2019-01-25T04:40:26.027Z,98574.98
2019-01-25T04:42:54.980Z,98574.02
2019-01-25T04:45:24.131Z,98579.68
2019-01-25T04:47:53.170Z,98571.84
2019-01-25T04:50:23.925Z,98577.41
2019-01-25T04:52:53.394Z,98582.06
2019-01-25T04:55:33.207Z,98576.88
2019-01-25T04:58:13.371Z,98581.78
2019-01-25T05:00:42.400Z,98580.34
2019-01-25T05:03:11.432Z,98581.63
2019-01-25T05:05:40.466Z,98579.19
2019-01-25T05:08:17.690Z,98571.55
2019-01-25T05:10:46.746Z,98581.63
2019-01-25T05:13:15.693Z,98577.78
2019-01-25T05:15:44.726Z,98587.05
2019-01-25T05:18:13.987Z,98579.97
2019-01-25T05:20:43.016Z,98571.28
2019-01-25T05:23:11.951Z,98583.10
2019-01-25T05:25:40.733Z,98576.05
2019-01-25T05:28:17.972Z,98572.62
2019-01-25T05:31:00.979Z,98579.06
2019-01-25T05:33:29.870Z,98580.31
2019-01-25T05:35:59.315Z,98579.87
2019-01-25T05:38:28.183Z,98591.37
2019-01-25T05:40:57.253Z,98591.66
2019-01-25T05:43:26.045Z,98591.91
2019-01-25T05:45:54.906Z,98592.92
2019-01-25T05:48:29.800Z,98602.08
2019-01-25T05:51:02.627Z,98600.73
2019-01-25T05:53:31.423Z,98599.16
2019-01-25T05:56:00.288Z,98586.64
2019-01-25T05:58:30.254Z,98589.97
2019-01-25T06:00:59.110Z,98592.16
2019-01-25T06:03:28.043Z,98601.92
2019-01-25T06:06:01.578Z,98600.63
2019-01-25T06:08:31.541Z,98597.67
2019-01-25T06:11:02.488Z,98602.78
2019-01-25T06:13:31.432Z,98602.53
2019-01-25T06:16:00.285Z,98595.58
2019-01-25T06:18:29.209Z,98609.33
2019-01-25T06:20:58.556Z,98610.20
2019-01-25T06:23:27.410Z,98608.77
2019-01-25T06:25:57.916Z,98604.13
2019-01-25T06:28:26.976Z,98599.16
2019-01-25T06:30:56.009Z,98605.30
2019-01-25T06:33:24.957Z,98605.58
2019-01-25T06:35:53.786Z,98607.06
2019-01-25T06:38:22.716Z,98609.62
2019-01-25T06:40:51.592Z,98616.53
2019-01-25T06:43:20.546Z,98619.63
2019-01-25T06:45:49.967Z,98629.22
2019-01-25T06:48:19.069Z,98627.42
2019-01-25T06:50:47.858Z,98636.73
2019-01-25T06:53:16.722Z,98633.25
2019-01-25T06:55:45.592Z,98640.34
2019-01-25T06:58:33.372Z,98639.30
2019-01-25T07:01:14.443Z,98643.23
2019-01-25T07:03:43.228Z,98650.27
2019-01-25T07:06:12.110Z,98646.61
2019-01-25T07:08:40.989Z,98658.60
2019-01-25T07:11:09.893Z,98658.13
2019-01-25T07:13:38.684Z,98663.54
2019-01-25T07:16:07.496Z,98658.49
2019-01-25T07:18:36.532Z,98662.71
2019-01-25T07:21:05.488Z,98661.37
2019-01-25T07:23:34.294Z,98667.77
2019-01-25T07:26:04.294Z,98664.59
2019-01-25T07:28:34.110Z,98677.94
2019-01-25T07:31:03.475Z,98677.42
2019-01-25T07:33:32.439Z,98682.95
2019-01-25T07:36:01.414Z,98687.05
2019-01-25T07:38:30.248Z,98688.83
2019-01-25T07:40:59.121Z,98682.89
2019-01-25T07:43:27.971Z,98686.62
2019-01-25T07:45:56.881Z,98686.19
2019-01-25T07:48:25.933Z,98680.24
2019-01-25T07:50:54.764Z,98684.44
2019-01-25T07:53:23.594Z,98685.21
2019-01-25T07:55:52.367Z,98680.80
2019-01-25T07:58:21.214Z,98685.21
2019-01-25T08:00:50.027Z,98676.78
2019-01-25T08:03:18.814Z,98677.42
2019-01-25T08:05:47.705Z,98681.93
2019-01-25T08:08:16.547Z,98677.78
2019-01-25T08:10:45.356Z,98681.95
2019-01-25T08:13:14.154Z,98680.80
2019-01-25T08:15:43.059Z,98686.23
2019-01-25T08:18:11.945Z,98691.72
2019-01-25T08:20:40.821Z,98692.45
2019-01-25T08:23:09.817Z,98696.67
2019-01-25T08:25:38.607Z,98690.33
2019-01-25T08:28:07.556Z,98700.02
2019-01-25T08:30:37.080Z,98702.34
2019-01-25T08:33:06.191Z,98699.64
2019-01-25T08:35:35.260Z,98695.03
2019-01-25T08:38:06.378Z,98690.50
2019-01-25T08:40:34.804Z,98696.70
2019-01-25T08:43:03.595Z,98691.17
2019-01-25T08:45:32.445Z,98697.30
2019-01-25T08:48:01.281Z,98703.26
2019-01-25T08:50:30.310Z,98701.55
2019-01-25T08:52:59.262Z,98702.10
2019-01-25T08:55:28.194Z,98700.07
2019-01-25T08:57:57.225Z,98702.94
2019-01-25T09:00:26.326Z,98698.88
2019-01-25T09:02:55.642Z,98698.88
2019-01-25T09:05:25.084Z,98700.83
2019-01-25T09:07:54.030Z,98705.61
2019-01-25T09:10:23.013Z,98712.97
2019-01-25T09:12:51.876Z,98713.05
2019-01-25T09:15:23.453Z,98704.76
2019-01-25T09:17:52.399Z,98709.65
2019-01-25T09:20:21.621Z,98704.61
2019-01-25T09:22:50.919Z,98706.50
2019-01-25T09:25:19.834Z,98708.09
2019-01-25T09:27:48.883Z,98708.57
2019-01-25T09:30:19.935Z,98704.77
2019-01-25T09:32:48.878Z,98700.02
2019-01-25T09:35:18.465Z,98697.33
2019-01-25T09:37:47.553Z,98705.36
2019-01-25T09:40:19.096Z,98709.65
2019-01-25T09:42:47.895Z,98710.53
2019-01-25T09:45:16.830Z,98712.73
2019-01-25T09:47:45.706Z,98713.82
2019-01-25T09:50:16.479Z,98718.20
2019-01-25T09:52:45.426Z,98721.66
2019-01-25T09:55:16.636Z,98725.06
2019-01-25T09:57:45.495Z,98722.77
2019-01-25T10:00:27.487Z,98727.81
2019-01-25T10:02:56.363Z,98728.54
2019-01-25T10:05:25.235Z,98731.72
2019-01-25T10:07:54.339Z,98727.44
2019-01-25T10:10:23.251Z,98733.22
2019-01-25T10:12:52.054Z,98732.44
2019-01-25T10:15:24.039Z,98731.94
2019-01-25T10:17:53.024Z,98731.31
2019-01-25T10:20:22.050Z,98738.00
2019-01-25T10:22:50.925Z,98732.88
2019-01-25T10:25:19.871Z,98736.09
2019-01-25T10:27:48.824Z,98734.36
2019-01-25T10:30:20.304Z,98737.81
2019-01-25T10:32:49.175Z,98732.43
2019-01-25T10:35:18.553Z,98730.49
2019-01-25T10:37:47.594Z,98724.55
2019-01-25T10:40:17.691Z,98731.08
2019-01-25T10:42:53.062Z,98731.75
2019-01-25T10:45:42.710Z,98725.45
2019-01-25T10:48:11.577Z,98727.13
2019-01-25T10:50:40.482Z,98721.63
2019-01-25T10:53:09.850Z,98732.04
2019-01-25T10:55:39.197Z,98731.64
2019-01-25T10:58:08.775Z,98719.72
2019-01-25T11:00:37.713Z,98728.42
2019-01-25T11:03:06.854Z,98721.75
2019-01-25T11:05:35.789Z,98714.66
2019-01-25T11:08:04.690Z,98706.79
2019-01-25T11:10:33.476Z,98700.37
2019-01-25T11:13:02.393Z,98699.25
2019-01-25T11:15:31.322Z,98701.45
2019-01-25T11:18:00.314Z,98707.93
2019-01-25T11:20:29.245Z,98705.58
2019-01-25T11:22:58.040Z,98702.55
2019-01-25T11:25:32.652Z,98695.38
2019-01-25T11:28:01.514Z,98688.45
2019-01-25T11:30:30.401Z,98689.42
2019-01-25T11:32:59.340Z,98691.05
2019-01-25T11:35:28.318Z,98692.06
2019-01-25T11:37:57.096Z,98694.14
2019-01-25T11:40:28.524Z,98690.64
2019-01-25T11:42:57.313Z,98691.42
2019-01-25T11:45:26.181Z,98693.83
2019-01-25T11:47:55.119Z,98693.88
2019-01-25T11:50:23.909Z,98692.34
2019-01-25T11:52:52.842Z,98689.36
2019-01-25T11:55:21.713Z,98691.77
2019-01-25T11:57:50.649Z,98691.02
2019-01-25T12:00:22.167Z,98697.68
2019-01-25T12:02:51.133Z,98691.42
2019-01-25T12:05:21.451Z,98696.86
2019-01-25T12:07:50.377Z,98693.62
2019-01-25T12:10:21.607Z,98699.72
2019-01-25T12:12:50.398Z,98702.42
2019-01-25T12:15:19.268Z,98701.56
2019-01-25T12:17:48.083Z,98702.11
2019-01-25T12:20:20.085Z,98699.54
2019-01-25T12:22:49.032Z,98702.16
2019-01-25T12:25:17.981Z,98703.45
2019-01-25T12:27:47.286Z,98698.94
2019-01-25T12:30:22.258Z,98696.95
2019-01-25T12:32:51.046Z,98694.47
2019-01-25T12:35:19.914Z,98689.28
2019-01-25T12:37:48.700Z,98692.16
2019-01-25T12:40:17.835Z,98694.39
2019-01-25T12:42:46.698Z,98693.38
2019-01-25T12:45:18.350Z,98702.25
2019-01-25T12:47:48.051Z,98702.79
2019-01-25T12:50:20.061Z,98707.77
2019-01-25T12:52:48.853Z,98708.57
2019-01-25T12:55:18.564Z,98704.08
2019-01-25T12:57:48.285Z,98710.86
2019-01-25T13:00:19.498Z,98712.69
2019-01-25T13:02:48.547Z,98716.69
2019-01-25T13:05:17.616Z,98721.95
2019-01-25T13:07:46.465Z,98717.88
2019-01-25T13:10:16.152Z,98714.92
2019-01-25T13:12:45.179Z,98716.19
2019-01-25T13:15:14.465Z,98716.92
2019-01-25T13:17:43.320Z,98709.73
2019-01-25T13:20:17.522Z,98701.83
2019-01-25T13:22:46.466Z,98705.25
2019-01-25T13:25:15.468Z,98695.48
2019-01-25T13:27:44.249Z,98701.90
2019-01-25T13:30:15.891Z,98698.98
2019-01-25T13:32:44.759Z,98695.12
2019-01-25T13:35:13.711Z,98689.12
2019-01-25T13:37:42.746Z,98688.97
2019-01-25T13:40:14.168Z,98687.23
2019-01-25T13:42:43.194Z,98689.97
2019-01-25T13:45:13.849Z,98696.28
2019-01-25T13:47:42.782Z,98701.98
2019-01-25T13:50:13.884Z,98699.02
2019-01-25T13:52:42.748Z,98697.16
2019-01-25T13:55:12.963Z,98686.20
2019-01-25T13:57:42.301Z,98684.30
2019-01-25T14:00:26.178Z,98688.70
2019-01-25T14:02:55.040Z,98688.92
2019-01-25T14:05:24.216Z,98692.30
2019-01-25T14:07:53.095Z,98694.88
2019-01-25T14:10:24.455Z,98694.88
2019-01-25T14:12:53.397Z,98706.67
2019-01-25T14:15:22.342Z,98695.51
2019-01-25T14:17:51.130Z,98698.61
2019-01-25T14:20:23.690Z,98702.50
2019-01-25T14:22:52.845Z,98708.94
2019-01-25T14:25:22.037Z,98716.66
2019-01-25T14:27:51.402Z,98719.06
2019-01-25T14:30:27.261Z,98714.77
2019-01-25T14:32:56.181Z,98716.55
2019-01-25T14:35:25.123Z,98716.36
2019-01-25T14:37:54.142Z,98713.52
2019-01-25T14:40:23.184Z,98722.32
2019-01-25T14:42:51.972Z,98723.42
2019-01-25T14:45:21.828Z,98718.52
2019-01-25T14:47:50.759Z,98724.20
2019-01-25T14:50:20.917Z,98724.66
2019-01-25T14:52:49.856Z,98731.08
2019-01-25T14:55:18.744Z,98735.22
2019-01-25T14:57:47.667Z,98736.39
2019-01-25T15:00:16.624Z,98740.59
2019-01-25T15:02:45.464Z,98744.60
2019-01-25T15:05:16.594Z,98741.38
2019-01-25T15:07:45.535Z,98741.38
2019-01-25T15:10:16.844Z,98734.08
2019-01-25T15:12:46.102Z,98735.30
2019-01-25T15:15:15.852Z,98728.87
2019-01-25T15:17:44.791Z,98733.27
2019-01-25T15:20:25.998Z,98740.97
2019-01-25T15:22:54.867Z,98729.78
2019-01-25T15:25:23.830Z,98727.84
2019-01-25T15:27:53.318Z,98721.63
2019-01-25T15:30:25.159Z,98731.14
2019-01-25T15:32:54.017Z,98728.80
2019-01-25T15:35:24.118Z,98723.17
2019-01-25T15:37:53.639Z,98726.78
2019-01-25T15:40:22.806Z,98719.41
2019-01-25T15:42:51.736Z,98706.77
2019-01-25T15:45:21.289Z,98714.65
2019-01-25T15:47:50.233Z,98716.50
2019-01-25T15:50:21.409Z,98712.23
2019-01-25T15:52:50.338Z,98719.72
2019-01-25T15:55:19.824Z,98725.42
2019-01-25T15:57:48.706Z,98741.39
2019-01-25T16:00:19.596Z,98740.27
2019-01-25T16:02:48.742Z,98746.87
2019-01-25T16:05:19.225Z,98743.05
2019-01-25T16:07:49.818Z,98747.61
2019-01-25T16:10:19.698Z,98750.37
2019-01-25T16:12:48.738Z,98751.69
2019-01-25T16:15:19.766Z,98756.78
2019-01-25T16:17:48.823Z,98747.92
2019-01-25T16:20:17.942Z,98750.81
2019-01-25T16:22:47.199Z,98744.44
2019-01-25T16:25:18.338Z,98753.77
2019-01-25T16:27:47.241Z,98752.50
2019-01-25T16:30:18.921Z,98758.38
2019-01-25T16:32:47.789Z,98759.89
2019-01-25T16:35:16.903Z,98751.89
2019-01-25T16:37:45.932Z,98752.81
2019-01-25T16:40:16.671Z,98753.70
2019-01-25T16:42:45.536Z,98748.96
2019-01-25T16:45:20.089Z,98747.38
2019-01-25T16:47:49.004Z,98739.17
2019-01-25T16:50:23.615Z,98737.27
2019-01-25T16:52:48.752Z,98733.80
2019-01-25T16:55:17.696Z,98736.98
2019-01-25T16:57:46.566Z,98740.33
2019-01-25T17:00:22.226Z,98733.36
2019-01-25T17:02:51.261Z,98732.20
2019-01-25T17:05:20.207Z,98737.91
2019-01-25T17:07:49.071Z,98737.71
2019-01-25T17:10:18.213Z,98734.00
2019-01-25T17:12:47.095Z,98736.41
2019-01-25T17:15:16.331Z,98739.52
2019-01-25T17:17:45.203Z,98734.20
2019-01-25T17:20:20.057Z,98735.63
2019-01-25T17:22:45.708Z,98730.59
2019-01-25T17:25:14.986Z,98736.35
2019-01-25T17:27:43.926Z,98745.67
2019-01-25T17:30:19.503Z,98739.16
2019-01-25T17:32:48.542Z,98741.48
2019-01-25T17:35:17.386Z,98747.88
2019-01-25T17:37:46.244Z,98739.94
2019-01-25T17:40:16.463Z,98739.72
2019-01-25T17:42:45.386Z,98735.33
2019-01-25T17:45:14.983Z,98737.22
2019-01-25T17:47:43.830Z,98735.98
2019-01-25T17:50:13.400Z,98731.34
2019-01-25T17:52:42.319Z,98726.22
2019-01-25T17:55:11.827Z,98734.56
2019-01-25T17:57:40.674Z,98749.51
2019-01-25T18:00:16.362Z,98747.45
2019-01-25T18:02:45.220Z,98747.94
2019-01-25T18:05:14.263Z,98756.80
2019-01-25T18:07:44.261Z,98751.90
2019-01-25T18:10:15.492Z,98760.27
2019-01-25T18:12:44.350Z,98755.09
2019-01-25T18:15:13.747Z,98748.19
2019-01-25T18:17:42.702Z,98749.72
2019-01-25T18:20:14.263Z,98736.01
2019-01-25T18:22:43.180Z,98735.06
2019-01-25T18:25:14.233Z,98733.97
2019-01-25T18:27:46.399Z,98747.09
2019-01-25T18:30:20.511Z,98753.72
2019-01-25T18:32:49.287Z,98755.91
2019-01-25T18:35:18.155Z,98765.41
2019-01-25T18:37:47.006Z,98762.45
2019-01-25T18:40:15.890Z,98759.66
2019-01-25T18:42:44.717Z,98747.68
2019-01-25T18:45:13.655Z,98737.84
2019-01-25T18:47:42.555Z,98738.97
2019-01-25T18:50:12.975Z,98732.36
2019-01-25T18:52:41.827Z,98732.16
2019-01-25T18:55:13.687Z,98728.09
2019-01-25T18:57:42.479Z,98736.23
2019-01-25T19:00:14.829Z,98730.03
2019-01-25T19:02:43.682Z,98723.52
2019-01-25T19:05:12.628Z,98723.14
2019-01-25T19:07:41.561Z,98711.30
2019-01-25T19:10:13.525Z,98709.92
2019-01-25T19:12:42.384Z,98699.59
2019-01-25T19:15:13.672Z,98702.03
2019-01-25T19:17:42.640Z,98702.55
2019-01-25T19:20:12.715Z,98697.25
2019-01-25T19:22:41.762Z,98696.91
2019-01-25T19:25:10.704Z,98703.71
2019-01-25T19:27:39.554Z,98703.58
2019-01-25T19:30:16.832Z,98700.86
2019-01-25T19:32:45.763Z,98702.93
2019-01-25T19:35:14.732Z,98696.71
2019-01-25T19:37:43.660Z,98691.54
2019-01-25T19:40:14.599Z,98689.73
2019-01-25T19:42:43.557Z,98686.88
2019-01-25T19:45:12.926Z,98690.52
2019-01-25T19:47:41.844Z,98699.19
2019-01-25T19:50:12.974Z,98701.51
2019-01-25T19:52:41.934Z,98696.98
2019-01-25T19:55:13.840Z,98698.59
2019-01-25T19:57:42.867Z,98696.06
2019-01-25T20:00:24.332Z,98694.27
2019-01-25T20:02:53.256Z,98698.21
2019-01-25T20:05:22.458Z,98707.70
2019-01-25T20:07:51.493Z,98703.58
2019-01-25T20:10:20.810Z,98706.17
2019-01-25T20:12:50.098Z,98712.23
2019-01-25T20:15:19.747Z,98709.64
2019-01-25T20:17:48.619Z,98719.98
2019-01-25T20:20:20.379Z,98722.19
2019-01-25T20:22:49.308Z,98716.12
2019-01-25T20:25:18.244Z,98717.94
2019-01-25T20:27:47.039Z,98713.79
2019-01-25T20:30:21.815Z,98709.53
2019-01-25T20:32:50.682Z,98706.27
2019-01-25T20:35:21.385Z,98705.69
2019-01-25T20:37:50.187Z,98704.87
2019-01-25T20:40:19.102Z,98706.47
2019-01-25T20:42:47.982Z,98702.46
2019-01-25T20:45:27.054Z,98710.73
2019-01-25T20:47:52.782Z,98710.80
2019-01-25T20:50:24.560Z,98701.38
2019-01-25T20:52:53.652Z,98692.63
2019-01-25T20:55:22.694Z,98687.94
2019-01-25T20:57:51.572Z,98687.97
2019-01-25T21:00:22.890Z,98679.95
2019-01-25T21:02:52.186Z,98675.32
2019-01-25T21:05:21.550Z,98672.94
2019-01-25T21:07:50.451Z,98670.48
2019-01-25T21:10:20.743Z,98666.39
2019-01-25T21:12:49.880Z,98660.78
2019-01-25T21:15:20.285Z,98662.65
2019-01-25T21:17:49.430Z,98656.05
2019-01-25T21:20:20.764Z,98658.63
2019-01-25T21:22:49.724Z,98653.59
2019-01-25T21:27:50.213Z,98644.30
2019-01-25T21:30:22.004Z,98651.52
2019-01-25T21:32:50.960Z,98651.52
2019-01-25T21:35:19.990Z,98650.68
2019-01-25T21:37:48.869Z,98655.03
2019-01-25T21:40:19.880Z,98656.75
2019-01-25T21:42:48.910Z,98657.11
2019-01-25T21:45:20.041Z,98650.25
2019-01-25T21:47:49.155Z,98649.66
2019-01-25T21:50:20.140Z,98657.50
2019-01-25T21:52:49.271Z,98650.67
2019-01-25T21:55:18.194Z,98648.48
2019-01-25T21:57:47.059Z,98640.28
2019-01-25T22:02:45.651Z,98637.63
2019-01-25T22:05:14.835Z,98631.05
2019-01-25T22:07:43.775Z,98627.20
2019-01-25T22:10:15.511Z,98622.50
2019-01-25T22:12:44.374Z,98612.87
2019-01-25T22:15:15.364Z,98617.89
2019-01-25T22:17:44.621Z,98613.05
2019-01-25T22:20:16.767Z,98619.63
2019-01-25T22:22:45.618Z,98618.34
2019-01-25T22:25:14.677Z,98616.53
2019-01-25T22:27:44.186Z,98612.80
2019-01-25T22:30:15.648Z,98612.06
2019-01-25T22:32:44.578Z,98625.55
2019-01-25T22:35:13.608Z,98617.97
2019-01-25T22:37:42.481Z,98615.71
2019-01-25T22:40:14.905Z,98606.06
2019-01-25T22:42:44.084Z,98607.77
2019-01-25T22:45:15.048Z,98599.67
2019-01-25T22:47:43.984Z,98601.59
2019-01-25T22:50:16.774Z,98597.45
2019-01-25T22:52:45.698Z,98598.23
2019-01-25T22:55:15.262Z,98592.36
2019-01-25T22:57:44.190Z,98585.89
2019-01-25T23:00:52.028Z,98584.23
2019-01-25T23:04:00.824Z,98573.88
2019-01-25T23:06:39.924Z,98569.60
2019-01-25T23:09:32.095Z,98568.83
2019-01-25T23:12:01.038Z,98565.09
2019-01-25T23:14:29.837Z,98567.67
2019-01-25T23:16:58.829Z,98564.95
2019-01-25T23:19:27.772Z,98561.39
2019-01-25T23:21:56.625Z,98561.21
2019-01-25T23:24:25.580Z,98560.69
2019-01-25T23:26:54.427Z,98557.96
2019-01-25T23:29:23.366Z,98551.83
2019-01-25T23:31:52.218Z,98545.03
2019-01-25T23:34:21.005Z,98540.38
2019-01-25T23:36:49.784Z,98534.83
2019-01-25T23:39:18.628Z,98534.05
2019-01-25T23:41:47.476Z,98538.37
2019-01-25T23:44:16.421Z,98535.20
2019-01-25T23:46:45.213Z,98535.75
2019-01-25T23:49:13.995Z,98534.98
2019-01-25T23:51:42.867Z,98539.48
2019-01-25T23:54:11.649Z,98539.23
2019-01-25T23:56:40.444Z,98541.48
2019-01-25T23:59:09.223Z,98546.54
